Time;durP1;ratioP1;P1;durP2;ratioP2;P2;SDS_P1;SDS_P2;PMS_P1;PMS_P2;Temp;Humidity;BMP_temperature;BMP_pressure;BME280_temperature;BME280_humidity;BME280_pressure;Samples;Min_cycle;Max_cycle;Signal;HPM_P1;HPM_P2
2020/12/30 00:02:24;;;;;;;3.97;2.37;;;6.60;99.90;;;;;;5031457;28;20264;-61
2020/12/30 00:04:50;;;;;;;4.10;2.37;;;6.50;99.90;;;;;;5031677;28;20226;-64
2020/12/30 00:07:17;;;;;;;4.10;2.47;;;6.50;99.90;;;;;;5031779;28;20202;-64
2020/12/30 00:09:43;;;;;;;4.27;2.30;;;6.50;99.90;;;;;;5031282;28;20214;-64
2020/12/30 00:12:10;;;;;;;3.57;2.30;;;6.50;99.90;;;;;;5031279;28;20233;-64
2020/12/30 00:14:36;;;;;;;3.67;2.50;;;6.40;99.90;;;;;;5030761;28;20210;-64
2020/12/30 00:17:03;;;;;;;4.00;2.10;;;6.30;99.90;;;;;;5031373;28;20217;-63
2020/12/30 00:19:30;;;;;;;4.07;2.33;;;6.50;99.90;;;;;;5030653;28;20585;-64
2020/12/30 00:21:56;;;;;;;2.93;2.17;;;6.50;99.90;;;;;;5031239;28;20206;-63
2020/12/30 00:24:22;;;;;;;3.57;2.47;;;6.50;99.90;;;;;;5030754;28;20210;-62
2020/12/30 00:26:48;;;;;;;4.07;1.97;;;6.60;99.90;;;;;;5030851;28;20745;-63
2020/12/30 00:29:15;;;;;;;3.70;2.10;;;6.50;99.90;;;;;;5031090;28;20288;-64
2020/12/30 00:31:41;;;;;;;3.90;2.10;;;6.50;99.90;;;;;;5031197;28;20206;-63
2020/12/30 00:34:07;;;;;;;3.77;2.20;;;6.40;99.90;;;;;;5030792;28;20233;-63
2020/12/30 00:36:37;;;;;;;3.07;2.10;;;6.30;99.90;;;;;;5030830;28;20725;-63
2020/12/30 00:39:03;;;;;;;3.53;1.93;;;6.30;99.90;;;;;;5030467;28;20216;-63
2020/12/30 00:41:30;;;;;;;3.20;2.40;;;6.40;99.90;;;;;;5031271;28;20238;-63
2020/12/30 00:43:56;;;;;;;3.47;2.50;;;6.40;99.90;;;;;;5030923;28;20202;-63
2020/12/30 00:46:23;;;;;;;3.60;2.50;;;6.30;99.90;;;;;;5031129;28;20233;-63
2020/12/30 00:48:49;;;;;;;4.50;2.80;;;6.50;99.90;;;;;;5030652;28;20552;-63
2020/12/30 00:51:15;;;;;;;4.40;2.70;;;6.60;99.90;;;;;;5031110;28;20225;-63
2020/12/30 00:53:42;;;;;;;3.90;2.47;;;6.70;99.90;;;;;;5030366;28;20279;-63
2020/12/30 00:56:08;;;;;;;4.33;2.70;;;6.80;99.90;;;;;;5030919;28;20780;-64
2020/12/30 00:58:35;;;;;;;4.00;2.57;;;6.90;99.90;;;;;;5030853;28;20202;-63
2020/12/30 01:01:02;;;;;;;3.53;2.20;;;7.00;99.90;;;;;;5031040;28;20206;-63
2020/12/30 01:03:29;;;;;;;4.33;2.73;;;7.00;99.90;;;;;;5030682;28;20203;-63
2020/12/30 01:05:56;;;;;;;4.27;2.20;;;7.00;99.90;;;;;;5031164;28;20234;-63
2020/12/30 01:08:22;;;;;;;2.57;1.97;;;7.00;99.90;;;;;;5030281;28;20206;-63
2020/12/30 01:10:48;;;;;;;2.70;2.00;;;7.00;99.90;;;;;;5030993;28;20210;-63
2020/12/30 01:13:15;;;;;;;2.20;1.70;;;7.00;99.90;;;;;;5030464;28;20352;-63
2020/12/30 01:15:41;;;;;;;2.60;1.80;;;6.90;99.90;;;;;;5030235;28;20273;-63
2020/12/30 01:18:08;;;;;;;4.37;2.27;;;7.00;99.90;;;;;;5032230;28;20217;-63
2020/12/30 01:20:35;;;;;;;4.97;2.47;;;7.00;99.90;;;;;;5034128;28;20202;-63
2020/12/30 01:23:01;;;;;;;6.77;3.43;;;7.00;99.90;;;;;;5034629;28;20229;-63
2020/12/30 01:25:28;;;;;;;5.20;3.27;;;7.00;99.90;;;;;;5034299;28;20272;-63
2020/12/30 01:27:54;;;;;;;6.83;3.80;;;6.90;99.90;;;;;;5034192;28;20702;-63
2020/12/30 01:30:21;;;;;;;6.27;3.00;;;6.90;99.90;;;;;;5034385;28;20560;-63
2020/12/30 01:32:47;;;;;;;3.43;2.40;;;6.80;99.90;;;;;;5034226;28;20229;-63
2020/12/30 01:35:13;;;;;;;3.07;1.80;;;6.80;99.90;;;;;;5033707;28;20229;-64
2020/12/30 01:37:41;;;;;;;2.43;1.70;;;6.70;99.90;;;;;;5034308;28;20221;-63
2020/12/30 01:40:08;;;;;;;2.90;1.87;;;6.70;99.90;;;;;;5034114;28;20265;-64
2020/12/30 01:42:41;;;;;;;3.03;1.80;;;6.60;99.90;;;;;;5033986;28;20573;-63
2020/12/30 01:45:07;;;;;;;3.33;1.80;;;6.60;99.90;;;;;;5033504;28;20775;-64
2020/12/30 01:47:34;;;;;;;2.90;1.53;;;6.60;99.90;;;;;;5034016;28;20206;-64
2020/12/30 01:50:00;;;;;;;2.77;1.80;;;6.60;99.90;;;;;;5033515;28;20210;-64
2020/12/30 01:52:27;;;;;;;2.60;1.90;;;6.60;99.90;;;;;;5033918;28;20229;-64
2020/12/30 01:54:54;;;;;;;2.93;1.97;;;6.70;99.90;;;;;;5033392;28;20230;-64
2020/12/30 01:57:21;;;;;;;1.90;1.63;;;6.70;99.90;;;;;;5033893;28;20260;-63
2020/12/30 01:59:49;;;;;;;2.80;1.83;;;6.80;99.90;;;;;;5033376;28;20325;-63
2020/12/30 02:02:15;;;;;;;3.60;2.37;;;6.80;99.90;;;;;;5033548;28;20230;-64
2020/12/30 02:04:47;;;;;;;2.90;1.87;;;6.90;99.90;;;;;;5033362;28;20322;-64
2020/12/30 02:07:13;;;;;;;2.30;1.80;;;6.90;99.90;;;;;;5033644;28;20206;-63
2020/12/30 02:09:40;;;;;;;2.10;1.70;;;6.90;99.90;;;;;;5033560;28;20206;-63
2020/12/30 02:12:09;;;;;;;2.70;1.50;;;7.00;99.90;;;;;;5033732;28;20581;-63
2020/12/30 02:14:35;;;;;;;2.67;1.57;;;7.00;99.90;;;;;;5033086;28;20259;-63
2020/12/30 02:17:02;;;;;;;2.00;1.30;;;7.00;99.90;;;;;;5033419;28;20589;-63
2020/12/30 02:19:28;;;;;;;2.00;1.23;;;7.00;99.90;;;;;;5033259;28;20260;-64
2020/12/30 02:21:58;;;;;;;2.53;1.60;;;7.00;99.90;;;;;;5033389;28;20217;-63
2020/12/30 02:24:27;;;;;;;2.77;1.30;;;7.10;99.90;;;;;;5033081;28;20206;-64
2020/12/30 02:26:53;;;;;;;2.00;1.40;;;7.10;99.90;;;;;;5033084;28;20640;-63
2020/12/30 02:29:19;;;;;;;2.30;1.37;;;7.00;99.90;;;;;;5031709;28;20486;-64
2020/12/30 02:31:45;;;;;;;2.37;1.43;;;7.00;99.90;;;;;;5033038;28;20210;-63
2020/12/30 02:34:11;;;;;;;3.33;1.63;;;7.00;99.90;;;;;;5032693;28;20222;-64
2020/12/30 02:36:38;;;;;;;2.03;1.50;;;7.00;99.90;;;;;;5033017;28;20580;-64
2020/12/30 02:39:04;;;;;;;2.23;1.50;;;6.60;99.90;;;;;;5032937;28;20206;-63
2020/12/30 02:41:32;;;;;;;1.60;1.27;;;6.80;99.90;;;;;;5033930;28;20280;-63
2020/12/30 02:44:00;;;;;;;2.43;1.47;;;6.70;99.90;;;;;;5032597;28;20732;-64
2020/12/30 02:46:27;;;;;;;3.20;1.50;;;6.80;99.90;;;;;;5032803;28;20737;-64
2020/12/30 02:48:53;;;;;;;3.23;1.63;;;6.70;99.90;;;;;;5032771;28;20214;-64
2020/12/30 02:51:19;;;;;;;2.37;1.43;;;6.80;99.90;;;;;;5032811;28;20206;-63
2020/12/30 02:53:45;;;;;;;2.00;1.43;;;6.80;99.90;;;;;;5032321;28;20235;-63
2020/12/30 02:56:11;;;;;;;4.27;1.50;;;6.90;99.90;;;;;;5032416;28;20607;-63
2020/12/30 02:58:40;;;;;;;2.93;1.60;;;6.90;99.90;;;;;;5032388;28;20284;-63
2020/12/30 03:01:09;;;;;;;3.00;1.50;;;6.80;99.90;;;;;;5032803;28;20301;-64
2020/12/30 03:03:36;;;;;;;1.60;1.30;;;6.80;99.90;;;;;;5032515;28;20213;-63
2020/12/30 03:06:02;;;;;;;3.27;1.60;;;6.90;99.90;;;;;;5032615;28;20226;-64
2020/12/30 03:08:28;;;;;;;2.70;1.57;;;7.00;99.90;;;;;;5032161;28;20206;-63
2020/12/30 03:10:54;;;;;;;2.20;1.60;;;7.00;99.90;;;;;;5032379;28;20206;-63
2020/12/30 03:13:20;;;;;;;2.33;1.33;;;6.90;99.90;;;;;;5032065;28;20276;-64
2020/12/30 03:15:47;;;;;;;2.57;1.67;;;6.70;99.90;;;;;;5032274;28;20230;-64
2020/12/30 03:18:14;;;;;;;1.93;1.57;;;6.70;99.90;;;;;;5032011;28;20210;-64
2020/12/30 03:20:40;;;;;;;2.23;1.40;;;6.70;99.90;;;;;;5032430;28;20560;-63
2020/12/30 03:23:06;;;;;;;2.37;1.57;;;6.70;99.90;;;;;;5032247;28;20205;-63
2020/12/30 03:25:32;;;;;;;2.13;1.40;;;6.70;99.90;;;;;;5031730;28;20226;-64
2020/12/30 03:27:58;;;;;;;2.63;1.50;;;6.70;99.90;;;;;;5031509;28;20217;-64
2020/12/30 03:30:25;;;;;;;2.07;1.40;;;6.70;99.90;;;;;;5032013;28;20217;-64
2020/12/30 03:32:52;;;;;;;2.27;1.50;;;6.70;99.90;;;;;;5031897;28;20701;-64
2020/12/30 03:35:18;;;;;;;1.87;1.10;;;6.80;99.90;;;;;;5031510;28;20222;-64
2020/12/30 03:37:45;;;;;;;1.33;1.10;;;6.80;99.90;;;;;;5031660;28;20548;-63
2020/12/30 03:40:11;;;;;;;2.40;1.10;;;6.80;99.90;;;;;;5031337;28;20210;-64
2020/12/30 03:42:37;;;;;;;3.93;1.57;;;6.80;99.90;;;;;;5031448;28;20669;-64
2020/12/30 03:45:04;;;;;;;3.23;1.50;;;6.80;99.90;;;;;;5031175;28;20791;-64
2020/12/30 03:47:30;;;;;;;2.07;1.40;;;6.90;99.90;;;;;;5031594;28;20602;-64
2020/12/30 03:49:57;;;;;;;3.00;1.60;;;6.90;99.90;;;;;;5031617;28;20571;-64
2020/12/30 03:52:23;;;;;;;1.77;1.20;;;6.90;99.90;;;;;;5031523;28;20260;-64
2020/12/30 03:54:50;;;;;;;1.27;1.10;;;7.00;99.90;;;;;;5031211;28;20210;-63
2020/12/30 03:57:16;;;;;;;1.37;1.10;;;6.90;99.90;;;;;;5031699;28;20205;-64
2020/12/30 03:59:42;;;;;;;1.27;0.90;;;7.00;99.90;;;;;;5031304;28;20237;-64
2020/12/30 04:02:08;;;;;;;1.63;1.17;;;7.00;99.90;;;;;;5031486;28;20213;-64
2020/12/30 04:04:35;;;;;;;1.77;1.40;;;7.00;99.90;;;;;;5031260;28;20214;-64
2020/12/30 04:07:02;;;;;;;1.87;1.30;;;7.10;99.90;;;;;;5031509;28;20416;-64
2020/12/30 04:09:28;;;;;;;2.80;2.13;;;7.10;99.90;;;;;;5031200;28;20713;-63
2020/12/30 04:11:54;;;;;;;2.57;1.50;;;7.00;99.90;;;;;;5031799;28;20213;-64
2020/12/30 04:14:20;;;;;;;1.73;1.33;;;7.00;99.90;;;;;;5031614;28;20279;-63
2020/12/30 04:16:46;;;;;;;1.90;1.20;;;7.00;99.90;;;;;;5032051;28;20241;-64
2020/12/30 04:19:13;;;;;;;2.60;1.10;;;7.00;99.90;;;;;;5032131;28;20658;-64
2020/12/30 04:21:39;;;;;;;2.37;1.20;;;6.90;99.90;;;;;;5032670;28;20206;-64
2020/12/30 04:24:06;;;;;;;2.93;1.30;;;6.90;99.90;;;;;;5031354;28;20686;-64
2020/12/30 04:26:32;;;;;;;2.00;1.03;;;6.90;99.90;;;;;;5031359;28;20222;-63
2020/12/30 04:28:59;;;;;;;3.67;1.37;;;6.60;99.90;;;;;;5031080;28;20210;-64
2020/12/30 04:31:25;;;;;;;3.40;1.30;;;6.50;99.90;;;;;;5031202;28;20206;-64
2020/12/30 04:33:51;;;;;;;3.33;1.23;;;6.40;99.90;;;;;;5031015;28;20237;-64
2020/12/30 04:36:17;;;;;;;2.50;1.33;;;6.20;99.90;;;;;;5030843;28;20230;-64
2020/12/30 04:38:43;;;;;;;2.87;1.47;;;6.20;99.90;;;;;;5030538;28;20214;-64
2020/12/30 04:41:12;;;;;;;4.40;1.40;;;6.10;99.90;;;;;;5031301;28;20206;-64
2020/12/30 04:43:42;;;;;;;3.13;1.10;;;6.00;99.90;;;;;;5030790;28;20688;-64
2020/12/30 04:46:10;;;;;;;2.40;1.10;;;5.90;99.90;;;;;;5031331;28;20249;-64
2020/12/30 04:48:38;;;;;;;1.87;1.20;;;5.80;99.90;;;;;;5030911;28;20206;-64
2020/12/30 04:51:04;;;;;;;1.23;1.13;;;5.70;99.90;;;;;;5030948;28;20206;-64
2020/12/30 04:53:33;;;;;;;4.53;1.57;;;5.70;99.90;;;;;;5033209;28;20229;-64
2020/12/30 04:56:01;;;;;;;3.27;1.13;;;5.50;99.90;;;;;;5035352;28;20229;-65
2020/12/30 04:58:29;;;;;;;1.70;1.03;;;5.40;99.90;;;;;;5034937;28;20210;-64
2020/12/30 05:00:57;;;;;;;3.10;1.37;;;5.40;99.90;;;;;;5035399;28;20214;-65
2020/12/30 05:03:27;;;;;;;2.30;1.53;;;5.40;99.90;;;;;;5034759;28;20206;-64
2020/12/30 05:05:55;;;;;;;2.20;1.50;;;5.40;99.90;;;;;;5035024;28;20234;-64
2020/12/30 05:08:22;;;;;;;2.37;1.30;;;5.40;99.90;;;;;;5034774;28;20242;-64
2020/12/30 05:10:49;;;;;;;2.77;1.27;;;5.30;99.90;;;;;;5034931;28;20236;-64
2020/12/30 05:13:16;;;;;;;1.83;1.10;;;5.10;99.90;;;;;;5034740;28;20264;-64
2020/12/30 05:15:43;;;;;;;2.87;1.60;;;5.10;99.90;;;;;;5034295;28;20268;-64
2020/12/30 05:18:10;;;;;;;2.93;1.50;;;5.10;99.90;;;;;;5034417;28;20211;-65
2020/12/30 05:20:36;;;;;;;3.20;1.50;;;5.20;99.90;;;;;;5034926;28;20340;-64
2020/12/30 05:23:04;;;;;;;3.40;1.40;;;5.30;99.90;;;;;;5034418;28;20206;-64
2020/12/30 05:25:30;;;;;;;3.50;1.43;;;5.20;99.90;;;;;;5033921;28;20254;-64
2020/12/30 05:27:58;;;;;;;1.83;1.33;;;5.10;99.90;;;;;;5034074;28;20214;-64
2020/12/30 05:30:24;;;;;;;2.07;1.23;;;5.00;99.90;;;;;;5034360;28;20206;-64
2020/12/30 05:32:54;;;;;;;3.37;1.70;;;5.00;99.90;;;;;;5033933;28;20230;-64
2020/12/30 05:35:21;;;;;;;3.80;1.53;;;5.00;99.90;;;;;;5033977;28;20226;-64
2020/12/30 05:37:48;;;;;;;4.43;1.27;;;4.90;99.90;;;;;;5033936;28;20214;-64
2020/12/30 05:40:22;;;;;;;2.60;1.30;;;4.90;99.90;;;;;;5034221;28;20207;-64
2020/12/30 05:42:48;;;;;;;2.97;1.40;;;4.90;99.90;;;;;;5034191;28;20207;-64
2020/12/30 05:45:19;;;;;;;2.00;1.33;;;4.90;99.90;;;;;;5033268;28;20226;-64
2020/12/30 05:47:46;;;;;;;3.50;1.80;;;4.90;99.90;;;;;;5033993;28;20210;-63
2020/12/30 05:50:21;;;;;;;3.53;1.60;;;4.80;99.90;;;;;;5033931;28;20203;-63
2020/12/30 05:52:48;;;;;;;3.47;1.80;;;4.80;99.90;;;;;;5033821;28;20225;-64
2020/12/30 05:55:14;;;;;;;1.93;1.53;;;4.70;99.90;;;;;;5033253;28;20226;-64
2020/12/30 05:57:40;;;;;;;2.80;1.70;;;4.80;99.90;;;;;;5033439;28;20202;-64
2020/12/30 06:00:08;;;;;;;3.33;1.77;;;4.90;99.90;;;;;;5033560;28;20614;-64
2020/12/30 06:02:39;;;;;;;3.97;2.07;;;4.90;99.90;;;;;;5033945;28;20206;-64
2020/12/30 06:05:11;;;;;;;3.00;2.30;;;5.00;99.90;;;;;;5033438;28;20618;-64
2020/12/30 06:07:40;;;;;;;6.33;1.83;;;5.10;99.90;;;;;;5033312;28;20674;-64
2020/12/30 06:10:07;;;;;;;2.93;1.70;;;5.10;99.90;;;;;;5033477;28;20217;-64
2020/12/30 06:12:39;;;;;;;6.07;2.13;;;5.20;99.90;;;;;;5033398;28;20264;-64
2020/12/30 06:15:06;;;;;;;6.30;2.10;;;5.30;99.90;;;;;;5033159;28;20241;-64
2020/12/30 06:17:32;;;;;;;4.60;2.27;;;5.40;99.90;;;;;;5033333;28;20724;-64
2020/12/30 06:19:59;;;;;;;6.57;3.23;;;5.40;99.90;;;;;;5032864;28;20214;-64
2020/12/30 06:22:26;;;;;;;4.30;1.90;;;5.50;99.90;;;;;;5033370;28;20214;-64
2020/12/30 06:24:54;;;;;;;2.20;1.43;;;5.60;99.90;;;;;;5032916;28;20230;-64
2020/12/30 06:27:25;;;;;;;3.43;1.77;;;5.60;99.90;;;;;;5033454;28;20202;-64
2020/12/30 06:29:55;;;;;;;2.57;1.30;;;5.70;99.90;;;;;;5033133;28;20210;-64
2020/12/30 06:32:28;;;;;;;1.90;1.30;;;5.70;99.90;;;;;;5033409;28;20218;-64
2020/12/30 06:34:55;;;;;;;2.93;1.40;;;5.70;99.90;;;;;;5032877;28;20712;-65
2020/12/30 06:37:33;;;;;;;6.07;2.63;;;5.80;99.90;;;;;;5033049;28;20217;-64
2020/12/30 06:40:29;;;;;;;3.53;2.20;;;5.80;99.90;;;;;;5033511;28;20217;-64
2020/12/30 06:42:57;;;;;;;4.50;2.20;;;5.90;99.90;;;;;;4987815;28;20674;-64
2020/12/30 06:45:50;;;;;;;3.03;1.70;;;5.90;99.90;;;;;;5033000;28;20234;-65
2020/12/30 06:48:17;;;;;;;3.37;1.30;;;5.90;99.90;;;;;;5033368;28;20673;-64
2020/12/30 06:50:44;;;;;;;5.27;3.23;;;6.00;99.90;;;;;;5033074;28;20221;-64
2020/12/30 06:53:30;;;;;;;3.60;1.40;;;6.10;99.90;;;;;;5032830;28;20702;-65
2020/12/30 06:55:59;;;;;;;3.93;1.60;;;6.20;99.90;;;;;;5032867;28;20309;-64
2020/12/30 06:58:47;;;;;;;6.37;2.07;;;6.20;99.90;;;;;;5033002;28;20217;-64
2020/12/30 07:01:14;;;;;;;3.47;1.53;;;6.30;99.90;;;;;;5033594;28;20210;-64
2020/12/30 07:03:41;;;;;;;3.23;1.73;;;6.30;99.90;;;;;;5033436;28;20207;-64
2020/12/30 07:06:26;;;;;;;4.27;2.10;;;6.30;99.90;;;;;;5033111;28;20234;-64
2020/12/30 07:08:52;;;;;;;5.23;2.73;;;6.20;99.90;;;;;;5032350;28;20654;-64
2020/12/30 07:11:39;;;;;;;6.10;3.10;;;6.20;99.90;;;;;;5032513;28;20216;-65
2020/12/30 07:14:09;;;;;;;8.40;3.50;;;6.10;99.90;;;;;;5031919;28;20783;-64
2020/12/30 07:16:36;;;;;;;15.47;10.23;;;6.10;99.90;;;;;;5031396;28;20233;-64
2020/12/30 07:19:09;;;;;;;10.00;5.43;;;6.00;99.90;;;;;;5031946;28;20256;-64
2020/12/30 07:21:56;;;;;;;4.00;1.60;;;6.00;99.90;;;;;;5032526;28;20399;-64
2020/12/30 07:24:24;;;;;;;5.13;2.93;;;6.00;99.90;;;;;;5031929;28;20206;-64
2020/12/30 07:26:53;;;;;;;3.20;2.00;;;5.90;99.90;;;;;;5031993;28;20253;-65
2020/12/30 07:29:19;;;;;;;6.10;2.87;;;5.90;99.90;;;;;;5031628;28;20674;-65
2020/12/30 07:31:48;;;;;;;2.13;1.57;;;5.90;99.90;;;;;;5031849;28;20206;-64
2020/12/30 07:34:16;;;;;;;3.30;1.93;;;5.80;99.90;;;;;;5031487;28;20261;-64
2020/12/30 07:36:44;;;;;;;2.97;1.37;;;5.80;99.90;;;;;;5032180;28;20748;-65
2020/12/30 07:39:10;;;;;;;4.37;2.13;;;5.80;99.90;;;;;;5031811;28;20336;-65
2020/12/30 07:41:36;;;;;;;2.87;1.60;;;5.80;99.90;;;;;;5031827;28;20221;-65
2020/12/30 07:44:04;;;;;;;2.20;1.60;;;5.70;99.90;;;;;;5031427;28;20203;-64
2020/12/30 07:46:31;;;;;;;3.57;1.77;;;5.80;99.90;;;;;;5031948;28;20233;-65
2020/12/30 07:49:17;;;;;;;2.57;1.53;;;5.90;99.90;;;;;;5031777;28;20264;-64
2020/12/30 07:51:51;;;;;;;3.63;1.70;;;6.00;99.90;;;;;;5031818;28;20216;-64
2020/12/30 07:54:18;;;;;;;3.07;1.53;;;6.00;99.90;;;;;;5031347;28;20222;-63
2020/12/30 07:56:45;;;;;;;1.77;1.37;;;5.90;99.90;;;;;;5031718;28;20299;-64
2020/12/30 07:59:19;;;;;;;2.83;1.63;;;5.80;99.90;;;;;;5031871;28;20207;-63
2020/12/30 08:01:56;;;;;;;2.70;1.80;;;5.90;99.90;;;;;;5032415;28;20201;-65
2020/12/30 08:04:23;;;;;;;2.77;1.43;;;5.90;99.90;;;;;;5031685;28;20206;-65
2020/12/30 08:06:49;;;;;;;5.40;2.10;;;6.00;99.90;;;;;;5032069;28;20222;-65
2020/12/30 08:09:16;;;;;;;2.33;1.50;;;6.10;99.90;;;;;;5031636;28;20260;-65
2020/12/30 08:11:50;;;;;;;3.27;1.33;;;6.20;99.90;;;;;;5031839;28;20206;-65
2020/12/30 08:14:18;;;;;;;2.20;1.20;;;6.30;99.90;;;;;;5031393;28;20222;-64
2020/12/30 08:16:55;;;;;;;2.67;1.10;;;6.30;99.90;;;;;;5031512;28;20288;-64
2020/12/30 08:19:32;;;;;;;1.97;1.20;;;6.40;99.90;;;;;;5031748;28;20222;-64
2020/12/30 08:22:04;;;;;;;1.73;1.30;;;6.50;99.90;;;;;;5032171;28;20206;-64
2020/12/30 08:24:31;;;;;;;2.80;1.70;;;6.50;99.90;;;;;;5032186;28;20202;-63
2020/12/30 08:26:58;;;;;;;2.37;1.50;;;6.30;99.90;;;;;;5033928;28;20229;-63
2020/12/30 08:29:32;;;;;;;1.70;1.37;;;6.30;99.90;;;;;;5033414;28;20259;-62
2020/12/30 08:32:02;;;;;;;4.17;1.63;;;6.20;99.90;;;;;;5031909;28;20213;-63
2020/12/30 08:34:34;;;;;;;3.23;1.70;;;6.10;99.90;;;;;;5031975;28;20712;-63
2020/12/30 08:37:04;;;;;;;3.83;2.27;;;6.10;99.90;;;;;;5032204;28;20206;-63
2020/12/30 08:39:31;;;;;;;3.97;2.20;;;6.10;99.90;;;;;;5032051;28;20202;-63
2020/12/30 08:41:59;;;;;;;4.83;2.27;;;6.20;99.90;;;;;;5032317;28;20211;-63
2020/12/30 08:44:26;;;;;;;3.73;2.57;;;6.40;99.90;;;;;;5032136;28;20256;-63
2020/12/30 08:46:56;;;;;;;3.80;2.60;;;6.40;99.90;;;;;;5032338;28;20230;-64
2020/12/30 08:49:24;;;;;;;3.60;2.10;;;6.60;99.90;;;;;;5032289;28;20210;-64
2020/12/30 08:51:50;;;;;;;3.90;2.20;;;6.80;99.90;;;;;;5031924;28;20210;-66
2020/12/30 08:54:18;;;;;;;3.70;1.87;;;7.00;99.90;;;;;;5031801;28;20360;-65
2020/12/30 08:56:46;;;;;;;3.40;2.00;;;7.10;99.90;;;;;;5030668;28;20230;-64
2020/12/30 08:59:21;;;;;;;5.13;3.40;;;7.40;99.90;;;;;;5030519;28;20411;-64
2020/12/30 09:01:47;;;;;;;4.80;2.60;;;7.60;99.90;;;;;;5031265;28;20642;-64
2020/12/30 09:04:14;;;;;;;3.93;1.93;;;7.80;99.90;;;;;;5030600;28;20209;-65
2020/12/30 09:06:41;;;;;;;3.40;2.00;;;7.90;99.90;;;;;;5030750;28;20242;-63
2020/12/30 09:09:09;;;;;;;2.40;1.70;;;7.80;99.90;;;;;;5030302;28;20206;-64
2020/12/30 09:11:37;;;;;;;14.00;7.00;;;7.70;99.90;;;;;;5030671;28;20305;-64
2020/12/30 09:14:16;;;;;;;4.27;2.00;;;7.60;99.90;;;;;;5031072;28;20238;-65
2020/12/30 09:16:56;;;;;;;7.10;2.80;;;7.80;99.90;;;;;;5032151;28;20598;-64
2020/12/30 09:19:24;;;;;;;9.93;2.30;;;8.00;99.90;;;;;;5030059;28;20690;-65
2020/12/30 09:21:51;;;;;;;2.93;2.03;;;8.20;99.90;;;;;;5030004;28;20210;-65
2020/12/30 09:24:17;;;;;;;4.60;1.80;;;8.30;99.60;;;;;;5030250;28;20221;-64
2020/12/30 09:26:44;;;;;;;2.17;1.57;;;8.50;99.80;;;;;;5030349;28;20226;-64
2020/12/30 09:29:17;;;;;;;3.10;1.40;;;8.50;99.20;;;;;;5030184;28;20214;-65
2020/12/30 09:31:51;;;;;;;2.27;1.40;;;8.50;99.10;;;;;;5030623;28;20244;-65
2020/12/30 09:34:18;;;;;;;3.50;1.87;;;8.60;98.80;;;;;;5030283;28;20322;-63
2020/12/30 09:36:56;;;;;;;4.33;2.00;;;8.70;98.50;;;;;;5030210;28;20726;-62
2020/12/30 09:39:23;;;;;;;3.10;1.60;;;8.70;98.10;;;;;;5032730;28;20240;-65
2020/12/30 09:41:49;;;;;;;4.47;1.97;;;8.60;98.50;;;;;;5034792;28;20258;-65
2020/12/30 09:44:15;;;;;;;3.50;2.03;;;8.50;98.80;;;;;;5034260;28;20206;-65
2020/12/30 09:46:51;;;;;;;3.20;1.77;;;8.60;98.80;;;;;;5034469;28;20230;-65
2020/12/30 09:49:18;;;;;;;2.60;1.70;;;8.60;98.70;;;;;;5034176;28;20194;-65
2020/12/30 09:51:44;;;;;;;4.37;2.43;;;8.50;98.80;;;;;;5034579;28;20402;-64
2020/12/30 09:54:11;;;;;;;2.70;1.93;;;8.40;99.50;;;;;;5034280;28;20223;-65
2020/12/30 09:56:37;;;;;;;3.70;1.87;;;8.60;99.00;;;;;;5034383;28;20222;-65
2020/12/30 09:59:04;;;;;;;3.10;2.30;;;8.70;98.70;;;;;;5034040;28;20202;-65
2020/12/30 10:01:30;;;;;;;3.37;1.83;;;8.70;98.80;;;;;;5034530;28;20236;-65
2020/12/30 10:03:57;;;;;;;1.37;1.13;;;8.60;98.70;;;;;;5034365;28;20572;-65
2020/12/30 10:06:24;;;;;;;2.47;1.40;;;8.80;98.00;;;;;;5034193;28;20226;-65
2020/12/30 10:08:50;;;;;;;2.93;1.40;;;9.00;97.60;;;;;;5035409;28;20214;-66
2020/12/30 10:11:19;;;;;;;4.00;1.60;;;9.10;97.20;;;;;;5036486;28;20206;-65
2020/12/30 10:13:45;;;;;;;3.13;1.30;;;9.20;97.00;;;;;;5037054;28;20226;-65
2020/12/30 10:16:11;;;;;;;3.63;1.80;;;9.30;97.00;;;;;;5034575;28;20642;-61
2020/12/30 10:18:37;;;;;;;4.40;1.60;;;9.30;96.80;;;;;;5036975;28;20742;-61
2020/12/30 10:21:04;;;;;;;2.57;1.80;;;9.40;96.80;;;;;;5053518;28;20256;-61
2020/12/30 10:23:30;;;;;;;7.37;4.57;;;9.50;96.80;;;;;;5053578;28;20202;-64
2020/12/30 10:25:56;;;;;;;4.70;2.00;;;9.70;96.70;;;;;;5053919;28;20252;-63
2020/12/30 10:28:23;;;;;;;3.63;2.20;;;9.70;96.50;;;;;;5052606;28;20216;-66
2020/12/30 10:30:49;;;;;;;1.97;1.07;;;9.80;96.60;;;;;;5053235;28;20209;-69
2020/12/30 10:33:15;;;;;;;2.50;1.43;;;9.80;95.90;;;;;;5053533;28;20573;-67
2020/12/30 10:35:41;;;;;;;5.03;1.80;;;9.80;96.00;;;;;;5052964;28;20221;-66
2020/12/30 10:38:08;;;;;;;6.87;1.53;;;9.90;96.00;;;;;;5052600;28;20731;-68
2020/12/30 10:40:34;;;;;;;3.57;1.83;;;9.90;95.70;;;;;;5052621;28;20201;-68
2020/12/30 10:43:03;;;;;;;2.53;1.40;;;9.90;95.70;;;;;;5052899;28;20205;-65
2020/12/30 10:45:30;;;;;;;3.63;1.63;;;9.90;95.40;;;;;;5052298;28;20238;-61
2020/12/30 10:47:57;;;;;;;2.70;1.70;;;9.80;95.70;;;;;;5052727;28;20216;-61
2020/12/30 10:50:23;;;;;;;2.60;1.70;;;9.80;95.70;;;;;;5051650;28;20593;-61
2020/12/30 10:52:49;;;;;;;2.97;1.53;;;9.90;95.60;;;;;;5052773;28;20217;-61
2020/12/30 10:55:17;;;;;;;3.47;1.30;;;9.90;95.60;;;;;;5052450;28;20276;-61
2020/12/30 10:57:43;;;;;;;3.63;1.63;;;9.90;95.30;;;;;;5052346;28;20347;-61
2020/12/30 11:00:09;;;;;;;3.00;1.27;;;9.70;95.40;;;;;;5053130;28;20209;-61
2020/12/30 11:02:36;;;;;;;4.33;1.70;;;9.50;95.50;;;;;;5052917;28;20212;-61
2020/12/30 11:05:03;;;;;;;3.70;1.37;;;9.50;95.80;;;;;;5052316;28;20228;-61
2020/12/30 11:07:29;;;;;;;3.00;1.47;;;9.50;95.90;;;;;;5052568;28;20240;-61
2020/12/30 11:09:55;;;;;;;3.37;1.50;;;9.60;96.10;;;;;;5052285;28;20213;-61
2020/12/30 11:12:21;;;;;;;3.50;1.77;;;9.60;96.30;;;;;;5052537;28;20745;-61
2020/12/30 11:14:48;;;;;;;3.13;1.60;;;9.50;96.40;;;;;;5052179;28;20233;-62
2020/12/30 11:17:14;;;;;;;2.35;1.55;;;9.50;96.80;;;;;;5050752;28;20557;-63
2020/12/30 11:19:41;;;;;;;1.80;1.40;;;9.50;97.10;;;;;;5071368;28;20580;-62
2020/12/30 11:22:07;;;;;;;2.43;1.73;;;9.60;97.00;;;;;;5072025;28;20211;-63
2020/12/30 11:24:33;;;;;;;3.00;1.60;;;9.70;97.00;;;;;;5071566;28;20205;-63
2020/12/30 11:27:00;;;;;;;1.80;1.20;;;9.70;97.10;;;;;;5071845;28;20212;-62
2020/12/30 11:29:26;;;;;;;3.33;1.30;;;9.80;97.20;;;;;;5071806;28;20205;-64
2020/12/30 11:31:52;;;;;;;3.23;1.37;;;9.80;96.90;;;;;;5072256;28;20270;-64
2020/12/30 11:34:18;;;;;;;3.20;1.50;;;9.90;96.80;;;;;;5071394;28;20224;-64
2020/12/30 11:36:46;;;;;;;3.60;1.47;;;10.00;96.20;;;;;;5071887;28;20655;-65
2020/12/30 11:39:12;;;;;;;4.63;1.40;;;10.10;96.30;;;;;;5072063;28;20673;-65
2020/12/30 11:41:39;;;;;;;2.97;1.63;;;10.10;95.80;;;;;;5071650;28;20211;-63
2020/12/30 11:44:07;;;;;;;2.63;1.83;;;10.20;95.80;;;;;;5071783;28;20215;-64
2020/12/30 11:46:33;;;;;;;3.67;1.40;;;10.30;95.50;;;;;;5071923;28;20232;-64
2020/12/30 11:49:02;;;;;;;4.63;1.70;;;10.30;95.30;;;;;;5071748;28;20201;-64
2020/12/30 11:51:28;;;;;;;4.00;1.77;;;10.20;95.40;;;;;;5071535;28;20696;-66
2020/12/30 11:53:55;;;;;;;3.97;1.80;;;10.30;95.40;;;;;;5071012;28;20217;-64
2020/12/30 11:56:22;;;;;;;3.20;1.80;;;10.20;95.20;;;;;;5070912;28;20582;-64
2020/12/30 11:58:48;;;;;;;3.07;1.40;;;10.10;95.50;;;;;;5070622;28;20205;-63
2020/12/30 12:01:14;;;;;;;4.97;1.90;;;10.00;95.60;;;;;;5071110;28;20201;-66
2020/12/30 12:03:40;;;;;;;3.33;1.63;;;9.90;96.20;;;;;;5071306;28;20208;-64
2020/12/30 12:06:07;;;;;;;3.87;2.13;;;10.00;95.80;;;;;;5071251;28;20225;-65
2020/12/30 12:08:33;;;;;;;5.00;2.07;;;10.00;95.80;;;;;;5070922;28;20219;-61
2020/12/30 12:11:00;;;;;;;3.93;2.00;;;10.00;95.90;;;;;;5070785;28;20212;-60
2020/12/30 12:13:26;;;;;;;3.60;2.00;;;10.10;95.80;;;;;;5071225;28;20224;-63
2020/12/30 12:15:52;;;;;;;4.50;2.27;;;10.20;95.80;;;;;;5071103;28;20716;-63
2020/12/30 12:18:19;;;;;;;4.87;1.87;;;10.30;95.90;;;;;;5070802;28;20208;-64
2020/12/30 12:20:45;;;;;;;5.03;1.77;;;10.40;95.90;;;;;;5070646;28;20200;-62
2020/12/30 12:23:11;;;;;;;3.10;2.27;;;10.50;95.80;;;;;;5071064;28;20205;-64
2020/12/30 12:25:37;;;;;;;5.20;1.83;;;10.60;95.80;;;;;;5070917;28;20286;-64
2020/12/30 12:28:04;;;;;;;3.13;1.80;;;10.70;95.70;;;;;;5070601;28;20718;-63
2020/12/30 12:30:30;;;;;;;2.37;1.57;;;10.80;95.70;;;;;;5071009;28;20212;-63
2020/12/30 12:32:57;;;;;;;2.80;1.73;;;10.60;95.70;;;;;;5070861;28;20212;-62
2020/12/30 12:35:23;;;;;;;4.63;1.63;;;10.70;95.80;;;;;;5070160;28;20282;-65
2020/12/30 12:38:04;;;;;;;4.00;2.07;;;10.70;95.70;;;;;;5070358;28;20220;-63
2020/12/30 12:40:31;;;;;;;4.93;1.90;;;10.70;96.10;;;;;;5071065;28;20205;-62
2020/12/30 12:42:57;;;;;;;3.77;1.80;;;10.80;95.90;;;;;;5070892;28;20212;-60
2020/12/30 12:45:24;;;;;;;2.77;1.63;;;10.80;95.90;;;;;;5071040;28;20229;-62
2020/12/30 12:47:50;;;;;;;2.87;1.60;;;10.70;95.70;;;;;;5071599;28;20208;-62
2020/12/30 12:50:16;;;;;;;3.57;2.07;;;10.80;95.80;;;;;;5071389;28;20201;-62
2020/12/30 12:52:42;;;;;;;5.10;2.57;;;10.80;95.80;;;;;;5071788;28;20258;-63
2020/12/30 12:55:08;;;;;;;3.63;1.87;;;10.90;95.70;;;;;;5070858;28;20258;-62
2020/12/30 12:57:35;;;;;;;3.60;2.00;;;10.80;96.00;;;;;;5070790;28;20212;-61
2020/12/30 13:00:01;;;;;;;4.43;2.10;;;10.80;95.90;;;;;;5070578;28;20209;-64